Claes Maersk — OZDT2 — position and weather

sailwx.info

Track history (hours):
 
Tides and Currents Weather Stations Pressure Air Temp Water Temp Dewpoint Dewpoint Depression Visibility Wind Speed Wind Dir Waves Ship Positions

Claes Maersk

Last reported at 2014-Nov-17 07:17 UTC. Time now 2014-Dec-20 05:13 UTC.
Position N 36°03' W 005°23'.
Warning: this ship's position is 32 days out of date.

; draft 9.6 m.

Type: Cargo ship. MMSI: 219572000.

Date/timePositionNaut miles runAvg speedWind from/ knotsBaromVisibWave heightAir tempDewpointWater temp
2014-Nov-17 07:17N 36°03' W 005°23'4 0.1
2014-Nov-15 05:33N 35°59' W 005°21'223 7.7
2014-Nov-14 00:33N 37°39' W 009°30'1010.3
2014-Nov-13 23:33N 37°50' W 009°29'1010.3
2014-Nov-13 22:33N 37°60' W 009°28'11 9.9
2014-Nov-13 21:28N 38°10' W 009°26'9 9.9
2014-Nov-13 20:34N 38°19' W 009°25'21 8.8
2014-Nov-13 18:10N 38°40' W 009°19'5 7.8
2014-Nov-13 17:34N 38°41' W 009°13'3 2.5
2014-Nov-13 16:32N 38°42' W 009°10'0 0.0
2014-Nov-13 15:32N 38°42' W 009°10'0 0.0
2014-Nov-13 14:32N 38°42' W 009°10'0 0.0
2014-Nov-13 13:32N 38°42' W 009°10'0 0.0
2014-Nov-13 12:32N 38°42' W 009°10'0 0.0
2014-Nov-13 11:32N 38°42' W 009°10'0 0.0
2014-Nov-13 10:32N 38°42' W 009°10'0 0.0
2014-Nov-13 09:32N 38°42' W 009°10'0 0.0
2014-Nov-13 08:32N 38°42' W 009°10'0 0.0
2014-Nov-13 07:32N 38°42' W 009°10'0 0.0
2014-Nov-13 06:32N 38°42' W 009°10'0 0.0
2014-Nov-13 05:32N 38°42' W 009°10'0 0.0
2014-Nov-13 04:32N 38°42' W 009°10'0 0.0
2014-Nov-13 03:32N 38°42' W 009°10'0 0.0
2014-Nov-13 02:32N 38°42' W 009°10'0 0.0
2014-Nov-13 01:32N 38°42' W 009°10'0 0.0
2014-Nov-13 00:32N 38°42' W 009°10'0 0.0
2014-Nov-12 23:32N 38°42' W 009°10'0 0.0
2014-Nov-12 22:32N 38°42' W 009°10'0 0.0
2014-Nov-12 21:32N 38°42' W 009°10'0 0.0
2014-Nov-12 20:32N 38°42' W 009°10'0 0.0
2014-Nov-12 19:32N 38°42' W 009°10'0 0.0
2014-Nov-12 18:32N 38°42' W 009°10'0 0.0
2014-Nov-12 17:32N 38°42' W 009°10'0 0.0
2014-Nov-12 16:32N 38°42' W 009°10'0 0.0
2014-Nov-12 15:32N 38°42' W 009°10'  
2014-Nov-08 07:24N 35°60' W 005°27'9 0.4
2014-Nov-07 10:16N 36°08' W 005°23'6 7.9
2014-Nov-07 09:33N 36°04' W 005°18'5 4.4
2014-Nov-07 08:30N 36°06' W 005°12'1 0.9
2014-Nov-07 07:33N 36°05' W 005°13'  
Track history (hours):
 
Tides and Currents Weather Stations Pressure Air Temp Water Temp Dewpoint Dewpoint Depression Visibility Wind Speed Wind Dir Waves Ship Positions

Claes Maersk

Last reported at 2014-Nov-17 07:17 UTC. Time now 2014-Dec-20 05:13 UTC.
Position N 36°03' W 005°23'.
Warning: this ship's position is 32 days out of date.

; draft 9.6 m.

Type: Cargo ship. MMSI: 219572000.

Date/timePositionNaut miles runAvg speedWind from/ knotsBaromVisibWave heightAir tempDewpointWater temp
2014-Nov-17 07:17N 36°03' W 005°23'4 0.1
2014-Nov-15 05:33N 35°59' W 005°21'223 7.7
2014-Nov-14 00:33N 37°39' W 009°30'1010.3
2014-Nov-13 23:33N 37°50' W 009°29'1010.3
2014-Nov-13 22:33N 37°60' W 009°28'11 9.9
2014-Nov-13 21:28N 38°10' W 009°26'9 9.9
2014-Nov-13 20:34N 38°19' W 009°25'21 8.8
2014-Nov-13 18:10N 38°40' W 009°19'5 7.8
2014-Nov-13 17:34N 38°41' W 009°13'3 2.5
2014-Nov-13 16:32N 38°42' W 009°10'0 0.0
2014-Nov-13 15:32N 38°42' W 009°10'0 0.0
2014-Nov-13 14:32N 38°42' W 009°10'0 0.0
2014-Nov-13 13:32N 38°42' W 009°10'0 0.0
2014-Nov-13 12:32N 38°42' W 009°10'0 0.0
2014-Nov-13 11:32N 38°42' W 009°10'0 0.0
2014-Nov-13 10:32N 38°42' W 009°10'0 0.0
2014-Nov-13 09:32N 38°42' W 009°10'0 0.0
2014-Nov-13 08:32N 38°42' W 009°10'0 0.0
2014-Nov-13 07:32N 38°42' W 009°10'0 0.0
2014-Nov-13 06:32N 38°42' W 009°10'0 0.0
2014-Nov-13 05:32N 38°42' W 009°10'0 0.0
2014-Nov-13 04:32N 38°42' W 009°10'0 0.0
2014-Nov-13 03:32N 38°42' W 009°10'0 0.0
2014-Nov-13 02:32N 38°42' W 009°10'0 0.0
2014-Nov-13 01:32N 38°42' W 009°10'0 0.0
2014-Nov-13 00:32N 38°42' W 009°10'0 0.0
2014-Nov-12 23:32N 38°42' W 009°10'0 0.0
2014-Nov-12 22:32N 38°42' W 009°10'0 0.0
2014-Nov-12 21:32N 38°42' W 009°10'0 0.0
2014-Nov-12 20:32N 38°42' W 009°10'0 0.0
2014-Nov-12 19:32N 38°42' W 009°10'0 0.0
2014-Nov-12 18:32N 38°42' W 009°10'0 0.0
2014-Nov-12 17:32N 38°42' W 009°10'0 0.0
2014-Nov-12 16:32N 38°42' W 009°10'0 0.0
2014-Nov-12 15:32N 38°42' W 009°10'  
2014-Nov-08 07:24N 35°60' W 005°27'9 0.4
2014-Nov-07 10:16N 36°08' W 005°23'6 7.9
2014-Nov-07 09:33N 36°04' W 005°18'5 4.4
2014-Nov-07 08:30N 36°06' W 005°12'1 0.9
2014-Nov-07 07:33N 36°05' W 005°13'  

Dump ship's entire track history